sensor_id;sensor_type;location;lat;lon;timestamp;P1;durP1;ratioP1;P2;durP2;ratioP2
70148;SDS011;57514;52.164;5.282;2023-08-31T00:00:44;8.18;;;2.72;;
70148;SDS011;57514;52.164;5.282;2023-08-31T00:03:12;7.38;;;2.28;;
70148;SDS011;57514;52.164;5.282;2023-08-31T00:05:41;7.82;;;2.83;;
70148;SDS011;57514;52.164;5.282;2023-08-31T00:08:09;6.30;;;2.33;;
70148;SDS011;57514;52.164;5.282;2023-08-31T00:10:38;6.65;;;2.75;;
70148;SDS011;57514;52.164;5.282;2023-08-31T00:13:06;7.68;;;2.83;;
70148;SDS011;57514;52.164;5.282;2023-08-31T00:15:34;10.05;;;3.20;;
70148;SDS011;57514;52.164;5.282;2023-08-31T00:18:03;8.07;;;2.50;;
70148;SDS011;57514;52.164;5.282;2023-08-31T00:20:31;10.00;;;2.72;;
70148;SDS011;57514;52.164;5.282;2023-08-31T00:23:00;8.65;;;3.00;;
70148;SDS011;57514;52.164;5.282;2023-08-31T00:25:27;8.77;;;2.90;;
70148;SDS011;57514;52.164;5.282;2023-08-31T00:27:55;7.03;;;2.83;;
70148;SDS011;57514;52.164;5.282;2023-08-31T00:30:23;9.40;;;3.15;;
70148;SDS011;57514;52.164;5.282;2023-08-31T00:32:56;9.05;;;2.90;;
70148;SDS011;57514;52.164;5.282;2023-08-31T00:35:27;10.85;;;2.88;;
70148;SDS011;57514;52.164;5.282;2023-08-31T00:37:55;9.23;;;2.78;;
70148;SDS011;57514;52.164;5.282;2023-08-31T00:40:28;9.38;;;2.78;;
70148;SDS011;57514;52.164;5.282;2023-08-31T00:42:57;10.00;;;2.70;;
70148;SDS011;57514;52.164;5.282;2023-08-31T00:45:24;8.75;;;2.65;;
70148;SDS011;57514;52.164;5.282;2023-08-31T00:47:52;11.55;;;3.03;;
70148;SDS011;57514;52.164;5.282;2023-08-31T00:50:20;10.70;;;3.35;;
70148;SDS011;57514;52.164;5.282;2023-08-31T00:52:48;11.98;;;3.53;;
70148;SDS011;57514;52.164;5.282;2023-08-31T00:55:15;9.15;;;3.30;;
70148;SDS011;57514;52.164;5.282;2023-08-31T00:57:44;12.25;;;3.05;;
70148;SDS011;57514;52.164;5.282;2023-08-31T01:00:13;11.20;;;3.42;;
70148;SDS011;57514;52.164;5.282;2023-08-31T01:02:44;12.15;;;3.50;;
70148;SDS011;57514;52.164;5.282;2023-08-31T01:05:20;10.75;;;4.10;;
70148;SDS011;57514;52.164;5.282;2023-08-31T01:08:12;9.35;;;3.60;;
70148;SDS011;57514;52.164;5.282;2023-08-31T01:10:54;10.55;;;3.63;;
70148;SDS011;57514;52.164;5.282;2023-08-31T01:13:24;12.25;;;3.33;;
70148;SDS011;57514;52.164;5.282;2023-08-31T01:15:56;7.72;;;3.22;;
70148;SDS011;57514;52.164;5.282;2023-08-31T01:18:28;9.23;;;3.33;;
70148;SDS011;57514;52.164;5.282;2023-08-31T01:23:49;8.35;;;3.08;;
70148;SDS011;57514;52.164;5.282;2023-08-31T01:26:17;8.32;;;3.20;;
70148;SDS011;57514;52.164;5.282;2023-08-31T01:28:45;9.25;;;3.47;;
70148;SDS011;57514;52.164;5.282;2023-08-31T01:31:14;10.68;;;3.38;;
70148;SDS011;57514;52.164;5.282;2023-08-31T01:33:46;9.93;;;3.20;;
70148;SDS011;57514;52.164;5.282;2023-08-31T01:36:27;8.10;;;3.45;;
70148;SDS011;57514;52.164;5.282;2023-08-31T01:39:06;8.75;;;3.30;;
70148;SDS011;57514;52.164;5.282;2023-08-31T01:41:38;9.40;;;3.50;;
70148;SDS011;57514;52.164;5.282;2023-08-31T01:44:07;10.27;;;3.60;;
70148;SDS011;57514;52.164;5.282;2023-08-31T01:49:04;12.93;;;5.22;;
70148;SDS011;57514;52.164;5.282;2023-08-31T01:51:32;11.77;;;4.70;;
70148;SDS011;57514;52.164;5.282;2023-08-31T01:53:59;12.85;;;5.68;;
70148;SDS011;57514;52.164;5.282;2023-08-31T01:56:26;11.75;;;5.50;;
70148;SDS011;57514;52.164;5.282;2023-08-31T01:58:54;12.07;;;5.93;;
70148;SDS011;57514;52.164;5.282;2023-08-31T02:01:21;13.63;;;6.82;;
70148;SDS011;57514;52.164;5.282;2023-08-31T02:03:48;11.95;;;5.35;;
70148;SDS011;57514;52.164;5.282;2023-08-31T02:06:17;14.45;;;7.40;;
70148;SDS011;57514;52.164;5.282;2023-08-31T02:08:44;14.73;;;8.35;;
70148;SDS011;57514;52.164;5.282;2023-08-31T02:11:16;13.07;;;7.45;;
70148;SDS011;57514;52.164;5.282;2023-08-31T02:13:44;13.85;;;7.03;;
70148;SDS011;57514;52.164;5.282;2023-08-31T02:16:11;11.90;;;7.00;;
70148;SDS011;57514;52.164;5.282;2023-08-31T02:18:38;13.80;;;7.28;;
70148;SDS011;57514;52.164;5.282;2023-08-31T02:21:05;12.48;;;7.57;;
70148;SDS011;57514;52.164;5.282;2023-08-31T02:23:33;12.52;;;6.68;;
70148;SDS011;57514;52.164;5.282;2023-08-31T02:26:01;11.98;;;5.57;;
70148;SDS011;57514;52.164;5.282;2023-08-31T02:28:28;16.48;;;7.43;;
70148;SDS011;57514;52.164;5.282;2023-08-31T02:31:02;13.23;;;6.18;;
70148;SDS011;57514;52.164;5.282;2023-08-31T02:33:29;14.55;;;6.05;;
70148;SDS011;57514;52.164;5.282;2023-08-31T02:35:57;11.00;;;5.60;;
70148;SDS011;57514;52.164;5.282;2023-08-31T02:38:24;13.35;;;6.13;;
70148;SDS011;57514;52.164;5.282;2023-08-31T02:40:52;13.82;;;5.57;;
70148;SDS011;57514;52.164;5.282;2023-08-31T02:43:19;14.00;;;6.03;;
70148;SDS011;57514;52.164;5.282;2023-08-31T02:45:48;13.05;;;5.35;;
70148;SDS011;57514;52.164;5.282;2023-08-31T02:48:15;11.98;;;4.88;;
70148;SDS011;57514;52.164;5.282;2023-08-31T02:50:43;10.40;;;4.63;;
70148;SDS011;57514;52.164;5.282;2023-08-31T02:53:09;10.25;;;5.13;;
70148;SDS011;57514;52.164;5.282;2023-08-31T02:55:37;12.10;;;5.30;;
70148;SDS011;57514;52.164;5.282;2023-08-31T02:58:04;11.93;;;5.47;;
70148;SDS011;57514;52.164;5.282;2023-08-31T03:00:32;10.98;;;3.47;;
70148;SDS011;57514;52.164;5.282;2023-08-31T03:02:59;11.05;;;4.43;;
70148;SDS011;57514;52.164;5.282;2023-08-31T03:05:27;9.63;;;3.88;;
70148;SDS011;57514;52.164;5.282;2023-08-31T03:07:55;15.45;;;4.28;;
70148;SDS011;57514;52.164;5.282;2023-08-31T03:10:23;12.05;;;4.20;;
70148;SDS011;57514;52.164;5.282;2023-08-31T03:12:50;13.27;;;4.18;;
70148;SDS011;57514;52.164;5.282;2023-08-31T03:15:18;15.25;;;4.53;;
70148;SDS011;57514;52.164;5.282;2023-08-31T03:17:45;9.35;;;3.33;;
70148;SDS011;57514;52.164;5.282;2023-08-31T03:20:13;6.82;;;2.90;;
70148;SDS011;57514;52.164;5.282;2023-08-31T03:22:40;7.93;;;3.10;;
70148;SDS011;57514;52.164;5.282;2023-08-31T03:25:07;8.55;;;2.90;;
70148;SDS011;57514;52.164;5.282;2023-08-31T03:27:35;7.28;;;2.60;;
70148;SDS011;57514;52.164;5.282;2023-08-31T03:30:02;9.50;;;3.53;;
70148;SDS011;57514;52.164;5.282;2023-08-31T03:32:30;7.88;;;2.85;;
70148;SDS011;57514;52.164;5.282;2023-08-31T03:34:58;6.82;;;2.88;;
70148;SDS011;57514;52.164;5.282;2023-08-31T03:37:26;9.20;;;3.20;;
70148;SDS011;57514;52.164;5.282;2023-08-31T03:39:55;11.60;;;2.83;;
70148;SDS011;57514;52.164;5.282;2023-08-31T03:42:22;7.05;;;3.00;;
70148;SDS011;57514;52.164;5.282;2023-08-31T03:44:49;5.80;;;1.80;;
70148;SDS011;57514;52.164;5.282;2023-08-31T03:47:17;8.05;;;2.80;;
70148;SDS011;57514;52.164;5.282;2023-08-31T03:49:44;6.03;;;2.50;;
70148;SDS011;57514;52.164;5.282;2023-08-31T03:52:13;7.57;;;2.45;;
70148;SDS011;57514;52.164;5.282;2023-08-31T03:54:41;8.68;;;2.60;;
70148;SDS011;57514;52.164;5.282;2023-08-31T03:57:08;8.93;;;2.88;;
70148;SDS011;57514;52.164;5.282;2023-08-31T03:59:35;8.23;;;2.72;;
70148;SDS011;57514;52.164;5.282;2023-08-31T04:02:02;8.00;;;2.28;;
70148;SDS011;57514;52.164;5.282;2023-08-31T04:04:30;6.05;;;2.55;;
70148;SDS011;57514;52.164;5.282;2023-08-31T04:06:58;7.93;;;2.75;;
70148;SDS011;57514;52.164;5.282;2023-08-31T04:09:25;10.90;;;2.67;;
70148;SDS011;57514;52.164;5.282;2023-08-31T04:11:52;7.22;;;3.03;;
70148;SDS011;57514;52.164;5.282;2023-08-31T04:14:21;10.63;;;3.72;;
70148;SDS011;57514;52.164;5.282;2023-08-31T04:16:48;9.52;;;3.72;;
70148;SDS011;57514;52.164;5.282;2023-08-31T04:19:16;13.68;;;3.83;;
70148;SDS011;57514;52.164;5.282;2023-08-31T04:21:43;13.85;;;4.25;;
70148;SDS011;57514;52.164;5.282;2023-08-31T04:24:11;12.15;;;4.32;;
70148;SDS011;57514;52.164;5.282;2023-08-31T04:26:38;9.52;;;3.92;;
70148;SDS011;57514;52.164;5.282;2023-08-31T04:29:05;11.73;;;4.13;;
70148;SDS011;57514;52.164;5.282;2023-08-31T04:31:33;11.85;;;4.47;;
70148;SDS011;57514;52.164;5.282;2023-08-31T04:34:00;14.38;;;4.03;;
70148;SDS011;57514;52.164;5.282;2023-08-31T04:36:27;12.88;;;4.13;;
70148;SDS011;57514;52.164;5.282;2023-08-31T04:38:55;10.30;;;3.90;;
70148;SDS011;57514;52.164;5.282;2023-08-31T04:41:22;14.43;;;5.30;;
70148;SDS011;57514;52.164;5.282;2023-08-31T04:43:49;13.48;;;4.65;;
70148;SDS011;57514;52.164;5.282;2023-08-31T04:46:16;15.10;;;5.25;;
70148;SDS011;57514;52.164;5.282;2023-08-31T04:48:44;13.32;;;4.93;;
70148;SDS011;57514;52.164;5.282;2023-08-31T04:51:33;12.35;;;5.38;;
70148;SDS011;57514;52.164;5.282;2023-08-31T04:53:59;12.02;;;4.45;;
70148;SDS011;57514;52.164;5.282;2023-08-31T04:56:30;10.85;;;4.65;;
70148;SDS011;57514;52.164;5.282;2023-08-31T04:59:00;8.27;;;3.42;;
70148;SDS011;57514;52.164;5.282;2023-08-31T05:01:29;10.75;;;3.85;;
70148;SDS011;57514;52.164;5.282;2023-08-31T05:03:56;10.90;;;3.15;;
70148;SDS011;57514;52.164;5.282;2023-08-31T05:06:24;13.00;;;3.90;;
70148;SDS011;57514;52.164;5.282;2023-08-31T05:08:51;9.20;;;3.13;;
70148;SDS011;57514;52.164;5.282;2023-08-31T05:11:18;8.70;;;2.80;;
70148;SDS011;57514;52.164;5.282;2023-08-31T05:13:46;10.57;;;3.08;;
70148;SDS011;57514;52.164;5.282;2023-08-31T05:16:13;9.65;;;3.00;;
70148;SDS011;57514;52.164;5.282;2023-08-31T05:18:41;8.30;;;2.60;;
70148;SDS011;57514;52.164;5.282;2023-08-31T05:21:08;9.07;;;2.85;;
70148;SDS011;57514;52.164;5.282;2023-08-31T05:23:35;9.40;;;2.83;;
70148;SDS011;57514;52.164;5.282;2023-08-31T05:26:02;9.20;;;2.70;;
70148;SDS011;57514;52.164;5.282;2023-08-31T05:28:30;11.20;;;2.75;;
70148;SDS011;57514;52.164;5.282;2023-08-31T05:30:57;13.90;;;2.67;;
70148;SDS011;57514;52.164;5.282;2023-08-31T05:33:24;11.18;;;2.75;;
70148;SDS011;57514;52.164;5.282;2023-08-31T05:35:53;9.55;;;3.10;;
70148;SDS011;57514;52.164;5.282;2023-08-31T05:38:21;7.35;;;2.42;;
70148;SDS011;57514;52.164;5.282;2023-08-31T05:40:48;9.40;;;2.80;;
70148;SDS011;57514;52.164;5.282;2023-08-31T05:43:15;10.10;;;2.60;;
70148;SDS011;57514;52.164;5.282;2023-08-31T05:45:43;7.65;;;2.10;;
70148;SDS011;57514;52.164;5.282;2023-08-31T05:48:10;7.10;;;2.10;;
70148;SDS011;57514;52.164;5.282;2023-08-31T05:50:38;11.63;;;2.70;;
70148;SDS011;57514;52.164;5.282;2023-08-31T05:53:05;8.75;;;2.00;;
70148;SDS011;57514;52.164;5.282;2023-08-31T05:55:34;7.28;;;2.17;;
70148;SDS011;57514;52.164;5.282;2023-08-31T05:58:01;8.35;;;2.15;;
70148;SDS011;57514;52.164;5.282;2023-08-31T06:00:29;9.73;;;2.42;;
70148;SDS011;57514;52.164;5.282;2023-08-31T06:02:56;7.15;;;2.20;;
70148;SDS011;57514;52.164;5.282;2023-08-31T06:05:24;4.63;;;1.92;;
70148;SDS011;57514;52.164;5.282;2023-08-31T06:07:51;7.18;;;1.90;;
70148;SDS011;57514;52.164;5.282;2023-08-31T06:10:19;8.35;;;2.40;;
70148;SDS011;57514;52.164;5.282;2023-08-31T06:12:46;5.15;;;1.92;;
70148;SDS011;57514;52.164;5.282;2023-08-31T06:15:13;6.35;;;2.28;;
70148;SDS011;57514;52.164;5.282;2023-08-31T06:17:41;9.25;;;2.45;;
70148;SDS011;57514;52.164;5.282;2023-08-31T06:20:08;11.55;;;2.70;;
70148;SDS011;57514;52.164;5.282;2023-08-31T06:22:36;8.25;;;2.30;;
70148;SDS011;57514;52.164;5.282;2023-08-31T06:25:03;12.45;;;2.40;;
70148;SDS011;57514;52.164;5.282;2023-08-31T06:27:32;10.13;;;3.03;;
70148;SDS011;57514;52.164;5.282;2023-08-31T06:29:59;8.80;;;2.60;;
70148;SDS011;57514;52.164;5.282;2023-08-31T06:32:26;6.88;;;2.40;;
70148;SDS011;57514;52.164;5.282;2023-08-31T06:34:54;5.78;;;1.98;;
70148;SDS011;57514;52.164;5.282;2023-08-31T06:37:21;12.55;;;2.50;;
70148;SDS011;57514;52.164;5.282;2023-08-31T06:39:48;9.63;;;2.80;;
70148;SDS011;57514;52.164;5.282;2023-08-31T06:42:15;7.90;;;2.20;;
70148;SDS011;57514;52.164;5.282;2023-08-31T06:44:43;8.80;;;2.38;;
70148;SDS011;57514;52.164;5.282;2023-08-31T06:47:10;5.78;;;1.80;;
70148;SDS011;57514;52.164;5.282;2023-08-31T06:49:37;6.32;;;2.53;;
70148;SDS011;57514;52.164;5.282;2023-08-31T06:52:04;7.65;;;1.92;;
70148;SDS011;57514;52.164;5.282;2023-08-31T06:54:54;4.10;;;1.27;;
70148;SDS011;57514;52.164;5.282;2023-08-31T06:57:23;4.50;;;1.30;;
70148;SDS011;57514;52.164;5.282;2023-08-31T06:59:50;6.10;;;1.83;;
70148;SDS011;57514;52.164;5.282;2023-08-31T07:02:17;9.68;;;1.90;;
70148;SDS011;57514;52.164;5.282;2023-08-31T07:04:45;5.15;;;1.70;;
70148;SDS011;57514;52.164;5.282;2023-08-31T07:07:12;5.28;;;1.40;;
70148;SDS011;57514;52.164;5.282;2023-08-31T07:09:42;6.78;;;1.60;;
70148;SDS011;57514;52.164;5.282;2023-08-31T07:12:10;4.38;;;1.50;;
70148;SDS011;57514;52.164;5.282;2023-08-31T07:14:37;6.90;;;1.73;;
70148;SDS011;57514;52.164;5.282;2023-08-31T07:17:04;5.13;;;1.73;;
70148;SDS011;57514;52.164;5.282;2023-08-31T07:19:34;11.20;;;2.65;;
70148;SDS011;57514;52.164;5.282;2023-08-31T07:22:03;7.88;;;2.10;;
70148;SDS011;57514;52.164;5.282;2023-08-31T07:24:32;5.20;;;1.90;;
70148;SDS011;57514;52.164;5.282;2023-08-31T07:27:02;9.23;;;2.20;;
70148;SDS011;57514;52.164;5.282;2023-08-31T07:29:29;9.00;;;2.05;;
70148;SDS011;57514;52.164;5.282;2023-08-31T07:31:57;6.60;;;2.10;;
70148;SDS011;57514;52.164;5.282;2023-08-31T07:34:24;7.68;;;2.35;;
70148;SDS011;57514;52.164;5.282;2023-08-31T07:36:51;10.05;;;2.50;;
70148;SDS011;57514;52.164;5.282;2023-08-31T07:39:18;11.60;;;2.25;;
70148;SDS011;57514;52.164;5.282;2023-08-31T07:41:46;8.07;;;2.10;;
70148;SDS011;57514;52.164;5.282;2023-08-31T07:44:14;12.10;;;2.75;;
70148;SDS011;57514;52.164;5.282;2023-08-31T07:46:42;9.15;;;2.40;;
70148;SDS011;57514;52.164;5.282;2023-08-31T07:49:09;11.77;;;2.50;;
70148;SDS011;57514;52.164;5.282;2023-08-31T07:51:36;10.55;;;2.80;;
70148;SDS011;57514;52.164;5.282;2023-08-31T07:54:03;9.75;;;2.80;;
70148;SDS011;57514;52.164;5.282;2023-08-31T07:56:31;9.52;;;2.70;;
70148;SDS011;57514;52.164;5.282;2023-08-31T07:58:58;9.95;;;2.83;;
70148;SDS011;57514;52.164;5.282;2023-08-31T08:01:25;8.27;;;2.53;;
70148;SDS011;57514;52.164;5.282;2023-08-31T08:03:53;9.23;;;2.70;;
70148;SDS011;57514;52.164;5.282;2023-08-31T08:06:21;11.20;;;3.00;;
70148;SDS011;57514;52.164;5.282;2023-08-31T08:08:48;8.52;;;3.00;;
70148;SDS011;57514;52.164;5.282;2023-08-31T08:11:15;9.00;;;2.85;;
70148;SDS011;57514;52.164;5.282;2023-08-31T08:13:42;11.43;;;3.72;;
70148;SDS011;57514;52.164;5.282;2023-08-31T08:16:10;8.55;;;3.13;;
70148;SDS011;57514;52.164;5.282;2023-08-31T08:18:37;11.15;;;3.13;;
70148;SDS011;57514;52.164;5.282;2023-08-31T08:21:04;9.05;;;3.47;;
70148;SDS011;57514;52.164;5.282;2023-08-31T08:23:31;8.30;;;3.00;;
70148;SDS011;57514;52.164;5.282;2023-08-31T08:25:58;9.75;;;3.60;;
70148;SDS011;57514;52.164;5.282;2023-08-31T08:28:26;14.52;;;3.50;;
70148;SDS011;57514;52.164;5.282;2023-08-31T08:30:54;9.77;;;3.22;;
70148;SDS011;57514;52.164;5.282;2023-08-31T08:33:21;11.82;;;3.30;;
70148;SDS011;57514;52.164;5.282;2023-08-31T08:35:48;12.00;;;3.28;;
70148;SDS011;57514;52.164;5.282;2023-08-31T08:38:16;11.95;;;3.20;;
70148;SDS011;57514;52.164;5.282;2023-08-31T08:40:43;11.05;;;3.22;;
70148;SDS011;57514;52.164;5.282;2023-08-31T08:43:10;7.85;;;2.90;;
70148;SDS011;57514;52.164;5.282;2023-08-31T08:45:38;11.02;;;3.35;;
70148;SDS011;57514;52.164;5.282;2023-08-31T08:48:08;10.85;;;3.10;;
70148;SDS011;57514;52.164;5.282;2023-08-31T08:50:35;9.68;;;3.08;;
70148;SDS011;57514;52.164;5.282;2023-08-31T08:53:03;10.27;;;3.10;;
70148;SDS011;57514;52.164;5.282;2023-08-31T08:55:31;9.60;;;2.65;;
70148;SDS011;57514;52.164;5.282;2023-08-31T08:57:59;8.10;;;2.58;;
70148;SDS011;57514;52.164;5.282;2023-08-31T09:00:27;8.05;;;2.42;;
70148;SDS011;57514;52.164;5.282;2023-08-31T09:02:54;7.18;;;2.28;;
70148;SDS011;57514;52.164;5.282;2023-08-31T09:05:22;6.63;;;2.20;;
70148;SDS011;57514;52.164;5.282;2023-08-31T09:08:09;6.55;;;2.20;;
70148;SDS011;57514;52.164;5.282;2023-08-31T09:13:13;7.60;;;2.50;;
70148;SDS011;57514;52.164;5.282;2023-08-31T09:15:45;7.22;;;1.98;;
70148;SDS011;57514;52.164;5.282;2023-08-31T09:18:15;7.72;;;1.73;;
70148;SDS011;57514;52.164;5.282;2023-08-31T09:20:43;6.97;;;1.80;;
70148;SDS011;57514;52.164;5.282;2023-08-31T09:23:14;7.57;;;1.80;;
70148;SDS011;57514;52.164;5.282;2023-08-31T09:25:49;8.75;;;1.60;;
70148;SDS011;57514;52.164;5.282;2023-08-31T09:28:18;4.50;;;1.65;;
70148;SDS011;57514;52.164;5.282;2023-08-31T09:30:47;5.97;;;1.35;;
70148;SDS011;57514;52.164;5.282;2023-08-31T09:33:15;5.55;;;1.27;;
70148;SDS011;57514;52.164;5.282;2023-08-31T09:35:47;7.32;;;1.48;;
70148;SDS011;57514;52.164;5.282;2023-08-31T09:38:15;5.63;;;1.63;;
70148;SDS011;57514;52.164;5.282;2023-08-31T09:40:42;5.90;;;1.42;;
70148;SDS011;57514;52.164;5.282;2023-08-31T09:43:12;9.25;;;1.73;;
70148;SDS011;57514;52.164;5.282;2023-08-31T09:45:40;6.43;;;1.30;;
70148;SDS011;57514;52.164;5.282;2023-08-31T09:48:12;6.22;;;1.27;;
70148;SDS011;57514;52.164;5.282;2023-08-31T09:50:42;8.40;;;1.45;;
70148;SDS011;57514;52.164;5.282;2023-08-31T09:53:11;6.32;;;1.30;;
70148;SDS011;57514;52.164;5.282;2023-08-31T09:55:39;6.35;;;1.10;;
70148;SDS011;57514;52.164;5.282;2023-08-31T09:58:07;6.07;;;1.13;;
70148;SDS011;57514;52.164;5.282;2023-08-31T10:00:42;5.65;;;1.15;;
70148;SDS011;57514;52.164;5.282;2023-08-31T10:03:10;6.47;;;1.40;;
70148;SDS011;57514;52.164;5.282;2023-08-31T10:05:46;4.32;;;1.02;;
70148;SDS011;57514;52.164;5.282;2023-08-31T10:08:15;6.10;;;1.20;;
70148;SDS011;57514;52.164;5.282;2023-08-31T10:10:43;6.28;;;1.10;;
70148;SDS011;57514;52.164;5.282;2023-08-31T10:13:11;5.90;;;0.98;;
70148;SDS011;57514;52.164;5.282;2023-08-31T10:15:38;4.90;;;1.08;;
70148;SDS011;57514;52.164;5.282;2023-08-31T10:18:06;8.15;;;1.27;;
70148;SDS011;57514;52.164;5.282;2023-08-31T10:20:34;6.18;;;1.00;;
70148;SDS011;57514;52.164;5.282;2023-08-31T10:23:02;6.68;;;1.00;;
70148;SDS011;57514;52.164;5.282;2023-08-31T10:28:16;6.53;;;1.20;;
70148;SDS011;57514;52.164;5.282;2023-08-31T10:31:04;3.08;;;0.88;;
70148;SDS011;57514;52.164;5.282;2023-08-31T10:36:00;5.95;;;1.38;;
70148;SDS011;57514;52.164;5.282;2023-08-31T10:38:32;4.55;;;1.15;;
70148;SDS011;57514;52.164;5.282;2023-08-31T10:41:03;5.70;;;1.20;;
70148;SDS011;57514;52.164;5.282;2023-08-31T10:43:48;3.75;;;1.00;;
70148;SDS011;57514;52.164;5.282;2023-08-31T10:49:12;7.80;;;1.02;;
70148;SDS011;57514;52.164;5.282;2023-08-31T10:51:41;2.22;;;0.73;;
70148;SDS011;57514;52.164;5.282;2023-08-31T10:54:34;4.38;;;0.85;;
70148;SDS011;57514;52.164;5.282;2023-08-31T10:57:02;3.78;;;0.90;;
70148;SDS011;57514;52.164;5.282;2023-08-31T11:02:27;3.50;;;1.00;;
70148;SDS011;57514;52.164;5.282;2023-08-31T11:05:09;3.50;;;0.70;;
70148;SDS011;57514;52.164;5.282;2023-08-31T11:07:38;4.10;;;0.82;;
70148;SDS011;57514;52.164;5.282;2023-08-31T11:12:45;4.63;;;1.00;;
70148;SDS011;57514;52.164;5.282;2023-08-31T11:15:17;2.60;;;0.82;;
70148;SDS011;57514;52.164;5.282;2023-08-31T11:17:46;3.92;;;0.70;;
70148;SDS011;57514;52.164;5.282;2023-08-31T11:20:14;2.80;;;0.80;;
70148;SDS011;57514;52.164;5.282;2023-08-31T11:22:47;2.08;;;0.90;;
70148;SDS011;57514;52.164;5.282;2023-08-31T11:25:17;5.00;;;1.08;;
70148;SDS011;57514;52.164;5.282;2023-08-31T11:27:55;3.22;;;0.70;;
70148;SDS011;57514;52.164;5.282;2023-08-31T11:30:30;3.50;;;0.63;;
70148;SDS011;57514;52.164;5.282;2023-08-31T11:33:02;3.50;;;0.95;;
70148;SDS011;57514;52.164;5.282;2023-08-31T11:35:32;4.78;;;1.00;;
70148;SDS011;57514;52.164;5.282;2023-08-31T11:38:03;3.78;;;1.20;;
70148;SDS011;57514;52.164;5.282;2023-08-31T11:40:30;2.65;;;1.17;;
70148;SDS011;57514;52.164;5.282;2023-08-31T11:42:58;2.70;;;0.80;;
70148;SDS011;57514;52.164;5.282;2023-08-31T11:45:30;2.38;;;0.80;;
70148;SDS011;57514;52.164;5.282;2023-08-31T11:47:57;2.75;;;0.77;;
70148;SDS011;57514;52.164;5.282;2023-08-31T11:50:25;5.85;;;1.10;;
70148;SDS011;57514;52.164;5.282;2023-08-31T11:52:53;3.78;;;0.93;;
70148;SDS011;57514;52.164;5.282;2023-08-31T11:55:21;4.47;;;1.10;;
70148;SDS011;57514;52.164;5.282;2023-08-31T11:57:52;3.53;;;1.00;;
70148;SDS011;57514;52.164;5.282;2023-08-31T12:00:21;2.78;;;1.05;;
70148;SDS011;57514;52.164;5.282;2023-08-31T12:02:58;5.75;;;1.10;;
70148;SDS011;57514;52.164;5.282;2023-08-31T12:05:26;4.53;;;1.00;;
70148;SDS011;57514;52.164;5.282;2023-08-31T12:07:54;3.70;;;1.02;;
70148;SDS011;57514;52.164;5.282;2023-08-31T12:10:25;3.63;;;0.98;;
70148;SDS011;57514;52.164;5.282;2023-08-31T12:12:53;4.25;;;0.93;;
70148;SDS011;57514;52.164;5.282;2023-08-31T12:15:22;3.45;;;0.95;;
70148;SDS011;57514;52.164;5.282;2023-08-31T12:17:49;4.00;;;0.88;;
70148;SDS011;57514;52.164;5.282;2023-08-31T12:20:25;3.30;;;1.08;;
70148;SDS011;57514;52.164;5.282;2023-08-31T12:22:53;3.58;;;0.80;;
70148;SDS011;57514;52.164;5.282;2023-08-31T12:25:23;2.08;;;0.85;;
70148;SDS011;57514;52.164;5.282;2023-08-31T12:27:50;3.72;;;0.93;;
70148;SDS011;57514;52.164;5.282;2023-08-31T12:30:17;1.75;;;0.80;;
70148;SDS011;57514;52.164;5.282;2023-08-31T12:32:44;3.63;;;1.20;;
70148;SDS011;57514;52.164;5.282;2023-08-31T12:35:12;4.43;;;1.23;;
70148;SDS011;57514;52.164;5.282;2023-08-31T12:37:40;4.65;;;0.95;;
70148;SDS011;57514;52.164;5.282;2023-08-31T12:40:07;3.47;;;0.90;;
70148;SDS011;57514;52.164;5.282;2023-08-31T12:42:36;3.55;;;0.77;;
70148;SDS011;57514;52.164;5.282;2023-08-31T12:45:03;4.07;;;1.00;;
70148;SDS011;57514;52.164;5.282;2023-08-31T12:47:32;4.43;;;1.30;;
70148;SDS011;57514;52.164;5.282;2023-08-31T12:49:59;2.97;;;1.10;;
70148;SDS011;57514;52.164;5.282;2023-08-31T12:52:28;4.00;;;1.00;;
70148;SDS011;57514;52.164;5.282;2023-08-31T12:54:55;4.32;;;1.00;;
70148;SDS011;57514;52.164;5.282;2023-08-31T12:57:22;3.90;;;0.98;;
70148;SDS011;57514;52.164;5.282;2023-08-31T12:59:49;5.40;;;1.02;;
70148;SDS011;57514;52.164;5.282;2023-08-31T13:02:16;2.58;;;1.00;;
70148;SDS011;57514;52.164;5.282;2023-08-31T13:04:46;2.63;;;0.60;;
70148;SDS011;57514;52.164;5.282;2023-08-31T13:07:14;3.28;;;0.93;;
70148;SDS011;57514;52.164;5.282;2023-08-31T13:09:41;5.80;;;1.08;;
70148;SDS011;57514;52.164;5.282;2023-08-31T13:12:08;4.55;;;1.27;;
70148;SDS011;57514;52.164;5.282;2023-08-31T13:14:35;3.85;;;0.82;;
70148;SDS011;57514;52.164;5.282;2023-08-31T13:17:02;3.30;;;1.00;;
70148;SDS011;57514;52.164;5.282;2023-08-31T13:19:30;4.03;;;1.13;;
70148;SDS011;57514;52.164;5.282;2023-08-31T13:21:57;4.70;;;1.40;;
70148;SDS011;57514;52.164;5.282;2023-08-31T13:24:24;6.03;;;1.33;;
70148;SDS011;57514;52.164;5.282;2023-08-31T13:26:51;6.75;;;1.10;;
70148;SDS011;57514;52.164;5.282;2023-08-31T13:29:18;2.55;;;0.80;;
70148;SDS011;57514;52.164;5.282;2023-08-31T13:31:46;5.93;;;1.10;;
70148;SDS011;57514;52.164;5.282;2023-08-31T13:34:13;6.30;;;1.02;;
70148;SDS011;57514;52.164;5.282;2023-08-31T13:36:42;3.08;;;1.00;;
70148;SDS011;57514;52.164;5.282;2023-08-31T13:39:09;3.67;;;0.90;;
70148;SDS011;57514;52.164;5.282;2023-08-31T13:41:36;5.00;;;0.90;;
70148;SDS011;57514;52.164;5.282;2023-08-31T13:44:03;5.07;;;1.30;;
70148;SDS011;57514;52.164;5.282;2023-08-31T13:46:31;4.03;;;1.10;;
70148;SDS011;57514;52.164;5.282;2023-08-31T13:48:58;1.58;;;0.73;;
70148;SDS011;57514;52.164;5.282;2023-08-31T13:51:28;4.07;;;1.00;;
70148;SDS011;57514;52.164;5.282;2023-08-31T13:53:55;3.67;;;1.10;;
70148;SDS011;57514;52.164;5.282;2023-08-31T13:56:22;4.18;;;0.90;;
70148;SDS011;57514;52.164;5.282;2023-08-31T13:58:49;2.25;;;0.63;;
70148;SDS011;57514;52.164;5.282;2023-08-31T14:01:17;4.25;;;1.13;;
70148;SDS011;57514;52.164;5.282;2023-08-31T14:03:44;2.17;;;0.90;;
70148;SDS011;57514;52.164;5.282;2023-08-31T14:06:11;2.92;;;1.00;;
70148;SDS011;57514;52.164;5.282;2023-08-31T14:08:40;2.78;;;1.00;;
70148;SDS011;57514;52.164;5.282;2023-08-31T14:11:07;3.45;;;0.88;;
70148;SDS011;57514;52.164;5.282;2023-08-31T14:13:34;4.63;;;0.93;;
70148;SDS011;57514;52.164;5.282;2023-08-31T14:16:01;4.15;;;1.20;;
70148;SDS011;57514;52.164;5.282;2023-08-31T14:18:29;3.45;;;0.80;;
70148;SDS011;57514;52.164;5.282;2023-08-31T14:20:58;3.70;;;1.20;;
70148;SDS011;57514;52.164;5.282;2023-08-31T14:23:27;4.65;;;0.70;;
70148;SDS011;57514;52.164;5.282;2023-08-31T14:25:54;2.15;;;1.02;;
70148;SDS011;57514;52.164;5.282;2023-08-31T14:28:21;4.38;;;1.17;;
70148;SDS011;57514;52.164;5.282;2023-08-31T14:30:48;2.60;;;1.00;;
70148;SDS011;57514;52.164;5.282;2023-08-31T14:33:18;3.22;;;0.95;;
70148;SDS011;57514;52.164;5.282;2023-08-31T14:35:45;2.53;;;0.90;;
70148;SDS011;57514;52.164;5.282;2023-08-31T14:38:13;3.38;;;1.10;;
70148;SDS011;57514;52.164;5.282;2023-08-31T14:40:49;4.30;;;1.15;;
70148;SDS011;57514;52.164;5.282;2023-08-31T14:43:15;4.60;;;1.10;;
70148;SDS011;57514;52.164;5.282;2023-08-31T14:45:43;3.97;;;1.08;;
70148;SDS011;57514;52.164;5.282;2023-08-31T14:48:10;3.65;;;1.15;;
70148;SDS011;57514;52.164;5.282;2023-08-31T14:50:42;5.93;;;1.10;;
70148;SDS011;57514;52.164;5.282;2023-08-31T14:53:11;3.47;;;1.02;;
70148;SDS011;57514;52.164;5.282;2023-08-31T14:55:38;3.95;;;0.93;;
70148;SDS011;57514;52.164;5.282;2023-08-31T14:58:05;3.38;;;0.85;;
70148;SDS011;57514;52.164;5.282;2023-08-31T15:00:33;3.05;;;1.02;;
70148;SDS011;57514;52.164;5.282;2023-08-31T15:02:59;4.18;;;1.20;;
70148;SDS011;57514;52.164;5.282;2023-08-31T15:05:27;5.10;;;1.23;;
70148;SDS011;57514;52.164;5.282;2023-08-31T15:07:56;4.13;;;1.05;;
70148;SDS011;57514;52.164;5.282;2023-08-31T15:10:23;5.47;;;1.50;;
70148;SDS011;57514;52.164;5.282;2023-08-31T15:12:51;3.38;;;1.17;;